Time;durP1;ratioP1;P1;durP2;ratioP2;P2;SDS_P1;SDS_P2;PMS_P1;PMS_P2;Temp;Humidity;BMP_temperature;BMP_pressure;BME280_temperature;BME280_humidity;BME280_pressure;Samples;Min_cycle;Max_cycle;Signal;HPM_P1;HPM_P2
2021/08/03 00:00:33;;;;;;;4.25;3.85;;;14.10;99.90;;;;;;4974458;28;20027;-75
2021/08/03 00:03:01;;;;;;;4.72;3.90;;;14.10;99.90;;;;;;4975053;28;20117;-75
2021/08/03 00:05:29;;;;;;;4.45;3.80;;;14.10;99.90;;;;;;4974626;28;20049;-75
2021/08/03 00:08:25;;;;;;;5.85;3.83;;;14.10;99.90;;;;;;4973520;28;20026;-75
2021/08/03 00:10:51;;;;;;;6.28;4.07;;;14.00;99.90;;;;;;4973277;28;20386;-75
2021/08/03 00:13:18;;;;;;;6.20;4.40;;;14.00;99.90;;;;;;4974884;28;20058;-75
2021/08/03 00:15:46;;;;;;;7.45;4.72;;;13.90;99.90;;;;;;4973645;28;20538;-76
2021/08/03 00:18:11;;;;;;;7.32;4.30;;;13.80;99.90;;;;;;4974442;28;20514;-75
2021/08/03 00:20:39;;;;;;;4.88;4.47;;;13.80;99.90;;;;;;4974639;28;20031;-75
2021/08/03 00:23:05;;;;;;;5.22;4.40;;;13.80;99.90;;;;;;4973404;28;20030;-75
2021/08/03 00:25:31;;;;;;;9.48;4.68;;;13.70;99.90;;;;;;4974286;28;20039;-75
2021/08/03 00:27:57;;;;;;;6.07;4.90;;;13.80;99.90;;;;;;4973881;28;20034;-75
2021/08/03 00:30:24;;;;;;;7.38;4.82;;;13.70;99.90;;;;;;4973429;28;20023;-74
2021/08/03 00:32:51;;;;;;;6.13;4.40;;;13.70;99.90;;;;;;4973480;28;20031;-74
2021/08/03 00:35:17;;;;;;;9.45;5.03;;;13.70;99.90;;;;;;4973403;28;20026;-75
2021/08/03 00:37:43;;;;;;;13.48;4.90;;;13.70;99.90;;;;;;4974559;28;20026;-75
2021/08/03 00:40:10;;;;;;;4.68;4.05;;;13.60;99.90;;;;;;4974395;28;20026;-76
2021/08/03 00:42:35;;;;;;;9.65;4.65;;;13.60;99.90;;;;;;4973593;28;20522;-75
2021/08/03 00:45:01;;;;;;;5.10;4.53;;;13.70;99.90;;;;;;4973396;28;20062;-74
2021/08/03 00:47:27;;;;;;;5.53;4.90;;;13.60;99.90;;;;;;4973423;28;20034;-75
2021/08/03 00:49:52;;;;;;;7.68;4.38;;;13.60;99.90;;;;;;4972847;28;20023;-75
2021/08/03 00:52:18;;;;;;;4.95;4.45;;;13.60;99.90;;;;;;4974314;28;20030;-75
2021/08/03 00:54:44;;;;;;;8.90;4.97;;;13.60;99.90;;;;;;4975328;28;20019;-76
2021/08/03 00:57:11;;;;;;;5.20;4.60;;;13.60;99.90;;;;;;4977048;28;20027;-75
2021/08/03 00:59:37;;;;;;;5.75;4.95;;;13.70;99.90;;;;;;4974287;28;20034;-76
2021/08/03 01:02:05;;;;;;;6.68;4.40;;;13.70;99.90;;;;;;4973436;28;20429;-74
2021/08/03 01:04:30;;;;;;;7.78;4.88;;;13.70;99.90;;;;;;4973060;28;20107;-75
2021/08/03 01:07:14;;;;;;;4.45;4.05;;;13.70;99.90;;;;;;4973193;28;20039;-75
2021/08/03 01:09:59;;;;;;;6.63;4.28;;;13.70;99.90;;;;;;4960491;28;20022;-75
2021/08/03 01:12:48;;;;;;;6.40;5.07;;;13.70;99.90;;;;;;4972009;28;20105;-75
2021/08/03 01:15:16;;;;;;;5.10;4.60;;;13.70;99.90;;;;;;4973002;28;20026;-74
2021/08/03 01:18:07;;;;;;;5.57;4.75;;;13.70;99.90;;;;;;4971914;28;20031;-75
2021/08/03 01:20:57;;;;;;;7.35;4.82;;;13.60;99.90;;;;;;4972964;28;20034;-75
2021/08/03 01:23:52;;;;;;;4.88;4.40;;;13.60;99.90;;;;;;4960671;28;20062;-74
2021/08/03 01:26:35;;;;;;;6.47;4.47;;;13.50;99.90;;;;;;4971817;28;20199;-75
2021/08/03 01:29:04;;;;;;;7.35;5.18;;;13.50;99.90;;;;;;4974902;28;20027;-75
2021/08/03 01:31:32;;;;;;;5.95;5.15;;;13.50;99.90;;;;;;4973712;28;20026;-74
2021/08/03 01:34:11;;;;;;;9.98;4.88;;;13.50;99.90;;;;;;4972710;28;20061;-75
2021/08/03 01:36:39;;;;;;;4.60;4.18;;;13.60;99.90;;;;;;4972972;28;20086;-74
2021/08/03 01:39:07;;;;;;;6.50;4.38;;;13.50;99.90;;;;;;4971325;28;20019;-75
2021/08/03 01:41:34;;;;;;;7.18;4.32;;;13.60;99.90;;;;;;4972047;28;20487;-75
2021/08/03 01:44:02;;;;;;;9.23;4.75;;;13.60;99.90;;;;;;4973460;28;20027;-74
2021/08/03 01:46:28;;;;;;;5.88;4.47;;;13.60;99.90;;;;;;4975005;28;20915;-75
2021/08/03 01:48:57;;;;;;;7.35;4.93;;;13.60;99.90;;;;;;4975636;28;20015;-75
2021/08/03 01:51:24;;;;;;;8.73;4.75;;;13.70;99.90;;;;;;4975737;28;20031;-75
2021/08/03 01:53:49;;;;;;;5.63;4.40;;;13.70;99.90;;;;;;4974475;28;20042;-75
2021/08/03 01:56:17;;;;;;;9.20;4.25;;;13.70;99.90;;;;;;4975754;28;20498;-75
2021/08/03 01:58:43;;;;;;;5.05;4.50;;;13.70;99.90;;;;;;4975866;28;20414;-75
2021/08/03 02:01:10;;;;;;;7.93;4.30;;;13.80;99.90;;;;;;4975146;28;20034;-75
2021/08/03 02:03:37;;;;;;;9.45;4.30;;;13.80;99.90;;;;;;4975585;28;20061;-76
2021/08/03 02:06:05;;;;;;;7.97;4.55;;;13.70;99.90;;;;;;4975665;28;20093;-75
2021/08/03 02:08:31;;;;;;;5.18;4.65;;;13.70;99.90;;;;;;4964668;28;20031;-76
2021/08/03 02:10:57;;;;;;;6.13;5.13;;;13.80;99.90;;;;;;4937459;28;1026001;-74
2021/08/03 02:13:24;;;;;;;6.72;5.25;;;13.80;99.90;;;;;;4977014;28;20034;-75
2021/08/03 02:15:49;;;;;;;5.25;4.78;;;13.70;99.90;;;;;;4975894;28;20490;-74
2021/08/03 02:18:16;;;;;;;6.18;5.28;;;13.70;99.90;;;;;;4976906;28;20027;-74
2021/08/03 02:20:45;;;;;;;5.38;4.78;;;13.60;99.90;;;;;;4975824;28;20118;-75
2021/08/03 02:23:12;;;;;;;4.90;4.40;;;13.60;99.90;;;;;;4976801;28;20123;-74
2021/08/03 02:25:40;;;;;;;7.03;5.72;;;13.50;99.90;;;;;;4976626;28;20126;-74
2021/08/03 02:28:06;;;;;;;8.25;6.00;;;13.50;99.90;;;;;;4975684;28;20025;-74
2021/08/03 02:30:31;;;;;;;5.88;5.28;;;13.50;99.90;;;;;;4976459;28;20026;-75
2021/08/03 02:33:06;;;;;;;5.95;5.40;;;13.40;99.90;;;;;;4977800;28;20110;-75
2021/08/03 02:35:46;;;;;;;6.05;5.45;;;13.40;99.90;;;;;;4977726;28;20038;-74
2021/08/03 02:38:15;;;;;;;5.97;5.20;;;13.40;99.90;;;;;;4976578;28;20026;-74
2021/08/03 02:40:42;;;;;;;6.47;5.45;;;13.30;99.90;;;;;;4976491;28;20027;-75
2021/08/03 02:43:10;;;;;;;7.15;5.78;;;13.30;99.90;;;;;;4975078;28;20026;-74
2021/08/03 02:45:38;;;;;;;6.70;5.50;;;13.30;99.90;;;;;;4975943;28;20058;-75
2021/08/03 02:48:11;;;;;;;7.63;5.88;;;13.20;99.90;;;;;;4975973;28;20058;-74
2021/08/03 02:50:40;;;;;;;6.03;5.43;;;13.10;99.90;;;;;;4975593;28;20541;-75
2021/08/03 02:53:13;;;;;;;7.53;6.05;;;13.10;99.90;;;;;;4977821;28;20093;-75
2021/08/03 02:55:59;;;;;;;7.05;5.10;;;13.10;99.90;;;;;;4975783;28;20036;-75
2021/08/03 02:58:34;;;;;;;6.22;5.63;;;13.00;99.90;;;;;;4971867;28;20027;-75
2021/08/03 03:01:01;;;;;;;6.45;5.10;;;13.00;99.90;;;;;;4988939;28;20032;-75
2021/08/03 03:03:30;;;;;;;7.30;6.47;;;13.00;99.90;;;;;;4994883;28;20038;-75
2021/08/03 03:06:03;;;;;;;7.78;6.10;;;13.00;99.90;;;;;;4995059;28;20046;-74
2021/08/03 03:08:30;;;;;;;6.70;5.82;;;13.00;99.90;;;;;;4995069;28;20105;-75
2021/08/03 03:11:00;;;;;;;12.05;6.53;;;12.90;99.90;;;;;;4993631;28;20056;-75
2021/08/03 03:13:35;;;;;;;8.98;6.35;;;12.90;99.90;;;;;;4995028;28;20502;-75
2021/08/03 03:16:02;;;;;;;9.77;5.95;;;12.90;99.90;;;;;;4994862;28;20033;-75
2021/08/03 03:18:29;;;;;;;6.40;5.80;;;13.00;99.90;;;;;;4994620;28;20026;-75
2021/08/03 03:20:55;;;;;;;7.40;6.70;;;13.00;99.90;;;;;;4994653;28;20041;-76
2021/08/03 03:23:23;;;;;;;9.05;5.72;;;13.00;99.90;;;;;;4994874;28;20018;-75
2021/08/03 03:25:53;;;;;;;10.55;5.93;;;13.00;99.90;;;;;;4980699;28;20053;-76
2021/08/03 03:28:25;;;;;;;9.45;5.65;;;13.10;99.90;;;;;;4996045;28;20109;-75
2021/08/03 03:30:52;;;;;;;6.70;5.75;;;13.10;99.90;;;;;;4994447;28;20023;-75
2021/08/03 03:33:18;;;;;;;8.77;5.90;;;13.20;99.90;;;;;;4994184;28;20382;-75
2021/08/03 03:35:47;;;;;;;7.40;6.25;;;13.20;99.90;;;;;;4994289;28;20100;-75
2021/08/03 03:38:15;;;;;;;6.35;5.75;;;13.20;99.90;;;;;;4993798;28;20027;-76
2021/08/03 03:40:41;;;;;;;6.60;5.63;;;13.20;99.90;;;;;;4994664;28;20037;-75
2021/08/03 03:43:07;;;;;;;6.07;5.55;;;13.20;99.90;;;;;;4994104;28;20370;-75
2021/08/03 03:45:35;;;;;;;11.88;5.25;;;13.20;99.90;;;;;;4993514;28;20026;-75
2021/08/03 03:48:04;;;;;;;6.40;5.72;;;13.20;99.90;;;;;;4994042;28;20454;-76
2021/08/03 03:50:40;;;;;;;6.50;5.83;;;13.10;99.90;;;;;;4994587;28;20482;-75
2021/08/03 03:53:10;;;;;;;7.35;5.95;;;13.00;99.90;;;;;;4994024;28;20031;-75
2021/08/03 03:55:37;;;;;;;6.28;5.68;;;12.90;99.90;;;;;;4994608;28;20022;-75
2021/08/03 03:58:06;;;;;;;6.35;5.35;;;12.90;99.90;;;;;;4993999;28;20038;-75
2021/08/03 04:00:38;;;;;;;6.20;5.60;;;12.90;99.90;;;;;;4993133;28;20072;-75
2021/08/03 04:03:05;;;;;;;6.68;5.20;;;12.90;99.90;;;;;;4993941;28;20481;-76
2021/08/03 04:05:34;;;;;;;6.75;6.00;;;12.90;99.90;;;;;;4993193;28;20501;-75
2021/08/03 04:08:00;;;;;;;8.82;5.45;;;12.90;99.90;;;;;;4992150;28;20030;-75
2021/08/03 04:10:34;;;;;;;6.68;6.05;;;12.90;99.90;;;;;;4993836;28;20092;-75
2021/08/03 04:13:00;;;;;;;7.88;5.72;;;12.90;99.90;;;;;;4993696;28;20494;-75
2021/08/03 04:15:26;;;;;;;7.47;6.35;;;12.90;99.90;;;;;;4993087;28;20439;-75
2021/08/03 04:17:52;;;;;;;6.15;5.55;;;12.90;99.90;;;;;;4993538;28;20029;-76
2021/08/03 04:20:18;;;;;;;6.32;5.80;;;12.90;99.90;;;;;;4993083;28;20034;-75
2021/08/03 04:22:43;;;;;;;6.20;5.60;;;12.90;99.90;;;;;;4993316;28;20124;-75
2021/08/03 04:25:09;;;;;;;6.75;5.38;;;12.90;99.90;;;;;;4993259;28;20036;-75
2021/08/03 04:27:35;;;;;;;6.57;5.65;;;12.90;99.90;;;;;;4992673;28;20062;-75
2021/08/03 04:30:01;;;;;;;9.25;4.80;;;12.90;99.90;;;;;;4993218;28;20061;-75
2021/08/03 04:32:27;;;;;;;8.45;5.70;;;12.90;99.90;;;;;;4993345;28;20389;-74
2021/08/03 04:34:52;;;;;;;6.82;5.60;;;12.90;99.90;;;;;;4992677;28;20024;-75
2021/08/03 04:37:18;;;;;;;6.85;5.40;;;13.00;99.90;;;;;;4993499;28;20034;-75
2021/08/03 04:39:43;;;;;;;8.20;5.10;;;13.00;99.90;;;;;;4993070;28;20018;-75
2021/08/03 04:42:09;;;;;;;5.88;5.15;;;13.00;99.90;;;;;;4992596;28;20018;-75
2021/08/03 04:44:34;;;;;;;7.80;4.85;;;13.10;99.90;;;;;;4993000;28;20030;-75
2021/08/03 04:47:00;;;;;;;13.13;5.07;;;13.10;99.90;;;;;;4992848;28;20041;-75
2021/08/03 04:49:26;;;;;;;5.70;4.60;;;13.10;99.90;;;;;;4992215;28;20052;-75
2021/08/03 04:51:51;;;;;;;12.13;4.80;;;13.20;99.90;;;;;;4993287;28;20080;-75
2021/08/03 04:54:17;;;;;;;6.85;4.90;;;13.30;99.90;;;;;;4993254;28;20018;-75
2021/08/03 04:56:43;;;;;;;4.82;4.40;;;13.30;99.90;;;;;;4992415;28;20109;-75
2021/08/03 04:59:08;;;;;;;6.85;4.55;;;13.30;99.90;;;;;;4992939;28;20467;-75
2021/08/03 05:01:34;;;;;;;4.70;4.30;;;13.40;99.90;;;;;;4993006;28;20038;-75
2021/08/03 05:04:00;;;;;;;7.10;4.43;;;13.40;99.90;;;;;;4992490;28;20037;-74
2021/08/03 05:06:26;;;;;;;4.35;3.88;;;13.50;99.90;;;;;;4993017;28;20038;-75
2021/08/03 05:08:52;;;;;;;7.47;3.80;;;13.50;99.90;;;;;;4992715;28;20085;-75
2021/08/03 05:11:17;;;;;;;4.90;4.47;;;13.50;99.90;;;;;;4991965;28;20050;-76
2021/08/03 05:13:43;;;;;;;4.60;4.03;;;13.60;99.90;;;;;;4992527;28;20081;-76
2021/08/03 05:16:09;;;;;;;5.38;4.38;;;13.70;99.90;;;;;;4993076;28;20025;-76
2021/08/03 05:18:35;;;;;;;4.57;3.67;;;13.70;99.90;;;;;;4992146;28;20466;-75
2021/08/03 05:21:00;;;;;;;6.07;4.63;;;13.80;99.90;;;;;;4992534;28;20045;-76
2021/08/03 05:23:26;;;;;;;4.05;3.67;;;13.80;99.90;;;;;;4992893;28;20054;-76
2021/08/03 05:25:51;;;;;;;4.82;4.00;;;13.90;99.90;;;;;;4991661;28;20093;-76
2021/08/03 05:28:17;;;;;;;4.65;3.65;;;14.00;99.90;;;;;;4992482;28;20026;-76
2021/08/03 05:30:44;;;;;;;8.15;4.72;;;14.10;99.90;;;;;;4991695;28;20105;-75
2021/08/03 05:33:10;;;;;;;8.07;5.20;;;14.10;99.90;;;;;;4992861;28;20050;-75
2021/08/03 05:35:36;;;;;;;4.38;3.92;;;14.20;99.90;;;;;;4992480;28;20417;-75
2021/08/03 05:38:02;;;;;;;5.47;3.60;;;14.30;99.90;;;;;;4991509;28;20027;-76
2021/08/03 05:40:27;;;;;;;5.97;3.90;;;14.30;99.90;;;;;;4992799;28;20027;-76
2021/08/03 05:42:53;;;;;;;4.55;3.75;;;14.30;99.90;;;;;;4992131;28;20536;-76
2021/08/03 05:45:18;;;;;;;7.28;4.22;;;14.40;99.90;;;;;;4991589;28;20049;-75
2021/08/03 05:47:44;;;;;;;7.65;3.58;;;14.40;99.90;;;;;;4992061;28;20482;-75
2021/08/03 05:50:10;;;;;;;6.20;4.00;;;14.40;99.90;;;;;;4960625;28;20158;-75
2021/08/03 05:52:36;;;;;;;4.20;3.80;;;14.40;99.90;;;;;;4953645;28;20055;-75
2021/08/03 05:55:03;;;;;;;5.00;4.30;;;14.40;99.90;;;;;;4957047;28;20066;-76
2021/08/03 05:57:30;;;;;;;5.43;4.03;;;14.40;99.90;;;;;;4955856;28;20023;-76
2021/08/03 05:59:56;;;;;;;4.13;3.70;;;14.40;99.90;;;;;;4954264;28;20113;-76
2021/08/03 06:02:22;;;;;;;7.85;3.97;;;14.40;99.90;;;;;;4959357;28;20035;-75
2021/08/03 06:04:47;;;;;;;4.65;3.90;;;14.40;99.90;;;;;;4955915;28;20019;-77
2021/08/03 06:07:14;;;;;;;5.93;4.15;;;14.50;99.90;;;;;;4959302;28;20479;-77
2021/08/03 06:09:42;;;;;;;4.93;4.05;;;14.50;99.90;;;;;;4955704;28;20041;-76
2021/08/03 06:12:10;;;;;;;4.47;3.88;;;14.50;99.90;;;;;;4957270;28;20055;-75
2021/08/03 06:14:40;;;;;;;7.78;4.30;;;14.60;99.90;;;;;;4956016;28;20027;-75
2021/08/03 06:17:08;;;;;;;5.68;3.60;;;14.50;99.90;;;;;;4956509;28;20015;-76
2021/08/03 06:19:48;;;;;;;5.65;3.75;;;14.70;99.90;;;;;;4957649;28;20099;-76
2021/08/03 06:22:16;;;;;;;4.97;3.87;;;14.80;99.90;;;;;;4959600;28;20031;-76
2021/08/03 06:24:44;;;;;;;5.60;3.70;;;14.80;99.90;;;;;;4965982;28;20027;-77
2021/08/03 06:27:12;;;;;;;3.97;3.58;;;14.90;99.90;;;;;;4953127;28;20042;-76
2021/08/03 06:29:38;;;;;;;5.32;4.13;;;15.00;99.90;;;;;;4966991;28;20050;-76
2021/08/03 06:32:06;;;;;;;6.38;3.92;;;15.00;99.90;;;;;;4964426;28;20110;-78
2021/08/03 06:34:37;;;;;;;5.43;3.60;;;15.00;99.90;;;;;;4970669;28;20217;-80
2021/08/03 06:37:04;;;;;;;4.30;3.60;;;15.10;99.90;;;;;;4967521;28;20062;-80
2021/08/03 06:39:29;;;;;;;3.97;3.58;;;15.10;99.90;;;;;;4972076;28;20035;-80
2021/08/03 06:42:03;;;;;;;6.20;3.60;;;15.10;99.90;;;;;;4969745;28;20020;-79
2021/08/03 06:44:42;;;;;;;3.53;3.22;;;15.10;99.90;;;;;;4971732;28;20017;-79
2021/08/03 06:47:10;;;;;;;6.27;3.47;;;15.20;99.90;;;;;;4968100;28;20043;-79
2021/08/03 06:49:41;;;;;;;5.35;3.65;;;15.10;99.90;;;;;;4959480;28;20031;-79
2021/08/03 06:52:10;;;;;;;7.07;4.05;;;15.20;99.90;;;;;;4969383;28;20037;-81
2021/08/03 06:54:37;;;;;;;5.93;3.92;;;15.30;99.90;;;;;;4972300;28;20101;-78
2021/08/03 06:57:08;;;;;;;6.50;3.50;;;15.30;99.90;;;;;;4971224;28;20058;-78
2021/08/03 06:59:36;;;;;;;6.30;4.05;;;15.40;99.90;;;;;;4970314;28;20015;-78
2021/08/03 07:02:06;;;;;;;5.38;3.90;;;15.50;99.90;;;;;;4970660;28;20038;-78
2021/08/03 07:04:47;;;;;;;3.80;3.40;;;15.50;99.90;;;;;;4970351;28;20026;-77
2021/08/03 07:07:14;;;;;;;3.83;3.35;;;15.50;99.90;;;;;;4969562;28;20491;-78
2021/08/03 07:09:43;;;;;;;4.15;3.55;;;15.60;99.90;;;;;;4974153;28;20057;-77
2021/08/03 07:12:13;;;;;;;6.68;3.35;;;15.70;99.90;;;;;;4975685;28;20051;-79
2021/08/03 07:14:39;;;;;;;6.32;3.38;;;15.80;99.90;;;;;;4968441;28;20391;-77
2021/08/03 07:17:11;;;;;;;8.43;3.45;;;15.90;99.90;;;;;;4969525;28;20031;-78
2021/08/03 07:19:38;;;;;;;6.75;3.15;;;16.00;99.90;;;;;;4957174;28;20020;-76
2021/08/03 07:22:05;;;;;;;5.28;3.22;;;16.00;99.90;;;;;;4957123;28;20111;-77
2021/08/03 07:24:31;;;;;;;5.20;3.00;;;16.00;99.90;;;;;;4969247;28;20042;-77
2021/08/03 07:26:57;;;;;;;3.58;3.00;;;15.90;99.90;;;;;;4975418;28;20041;-78
2021/08/03 07:29:24;;;;;;;2.97;2.28;;;15.90;99.90;;;;;;4975520;28;20055;-78
2021/08/03 07:31:50;;;;;;;8.90;2.70;;;15.90;99.90;;;;;;4974495;28;20034;-78
2021/08/03 07:34:15;;;;;;;3.08;1.85;;;16.00;99.90;;;;;;4975532;28;20014;-79
2021/08/03 07:36:41;;;;;;;3.10;1.60;;;16.00;99.90;;;;;;4975252;28;20035;-79
2021/08/03 07:39:07;;;;;;;2.88;1.40;;;15.90;99.90;;;;;;4974415;28;20490;-77
2021/08/03 07:41:34;;;;;;;7.10;1.77;;;16.00;99.90;;;;;;4973864;28;20499;-77
2021/08/03 07:44:00;;;;;;;5.80;1.40;;;16.10;99.90;;;;;;4981332;28;20069;-76
2021/08/03 07:46:27;;;;;;;10.25;1.40;;;16.10;99.90;;;;;;4993716;28;20034;-74
2021/08/03 07:48:54;;;;;;;6.03;1.63;;;16.20;99.90;;;;;;4984284;28;20533;-76
2021/08/03 07:51:20;;;;;;;3.00;1.63;;;16.30;99.90;;;;;;4980376;28;20386;-77
2021/08/03 07:53:47;;;;;;;10.82;2.88;;;16.30;99.90;;;;;;4987561;28;20015;-77
2021/08/03 07:56:14;;;;;;;3.33;1.52;;;16.40;99.90;;;;;;4974167;28;20566;-78
2021/08/03 07:58:39;;;;;;;4.68;1.27;;;16.40;99.90;;;;;;4973250;28;20489;-77
2021/08/03 08:01:06;;;;;;;4.70;1.40;;;16.40;99.90;;;;;;4983676;28;20026;-76
2021/08/03 08:03:33;;;;;;;2.47;0.90;;;16.40;99.90;;;;;;4991070;28;20058;-76
2021/08/03 08:05:59;;;;;;;8.38;3.35;;;16.50;99.90;;;;;;4973216;28;20034;-76
2021/08/03 08:08:25;;;;;;;3.90;1.42;;;16.50;99.90;;;;;;4986333;28;20069;-79
2021/08/03 08:10:50;;;;;;;3.70;1.23;;;16.60;99.90;;;;;;4959930;28;20047;-79
2021/08/03 08:13:16;;;;;;;1.88;1.08;;;16.70;99.90;;;;;;4955789;28;20447;-77
2021/08/03 08:15:42;;;;;;;2.50;1.00;;;16.70;99.90;;;;;;4957381;28;20034;-77
2021/08/03 08:18:10;;;;;;;4.72;1.30;;;16.80;99.90;;;;;;4960770;28;20027;-79
2021/08/03 08:20:38;;;;;;;2.83;1.33;;;16.80;99.90;;;;;;4973213;28;20522;-79
2021/08/03 08:23:06;;;;;;;1.73;1.08;;;16.90;99.90;;;;;;4968964;28;20027;-79
2021/08/03 08:25:32;;;;;;;2.88;1.33;;;16.90;99.90;;;;;;4971389;28;20117;-73
2021/08/03 08:27:58;;;;;;;1.33;1.15;;;16.90;99.90;;;;;;4964536;28;20166;-76
2021/08/03 08:30:24;;;;;;;4.65;1.40;;;16.90;99.90;;;;;;4972348;28;20023;-77
2021/08/03 08:32:50;;;;;;;5.30;1.30;;;17.00;99.90;;;;;;4972269;28;20037;-77
2021/08/03 08:35:15;;;;;;;6.50;1.30;;;17.30;99.90;;;;;;4971746;28;20023;-77
2021/08/03 08:37:41;;;;;;;2.22;1.20;;;17.30;99.90;;;;;;4972498;28;20030;-77
2021/08/03 08:40:09;;;;;;;3.90;1.50;;;17.50;99.90;;;;;;4972139;28;20038;-77
2021/08/03 08:42:35;;;;;;;2.95;1.40;;;17.60;99.90;;;;;;4971600;28;20042;-78
2021/08/03 08:45:03;;;;;;;2.95;1.10;;;17.70;99.90;;;;;;4974005;28;20035;-77
2021/08/03 08:47:29;;;;;;;2.72;1.40;;;17.70;99.90;;;;;;4972923;28;20034;-76
2021/08/03 08:50:02;;;;;;;2.50;1.05;;;17.90;99.90;;;;;;4973641;28;20022;-75
2021/08/03 08:52:28;;;;;;;2.40;1.20;;;17.80;99.90;;;;;;4973369;28;20439;-76
2021/08/03 08:54:54;;;;;;;10.75;1.48;;;17.90;99.90;;;;;;4972873;28;20046;-76
2021/08/03 08:57:19;;;;;;;6.57;1.50;;;18.00;99.90;;;;;;4977497;28;20030;-76
2021/08/03 08:59:45;;;;;;;3.47;1.10;;;18.00;99.90;;;;;;4983470;28;20031;-76
2021/08/03 09:02:10;;;;;;;2.58;1.10;;;18.10;99.90;;;;;;4972568;28;20035;-76
2021/08/03 09:04:42;;;;;;;4.68;1.63;;;18.20;99.90;;;;;;4973589;28;20058;-76
2021/08/03 09:07:09;;;;;;;3.13;1.40;;;18.20;99.90;;;;;;4973118;28;20042;-77
2021/08/03 09:09:45;;;;;;;3.80;1.45;;;18.10;99.90;;;;;;4981684;28;20061;-78
2021/08/03 09:12:13;;;;;;;2.53;1.30;;;18.20;99.90;;;;;;4992801;28;20072;-77
2021/08/03 09:14:41;;;;;;;5.78;1.60;;;18.30;99.90;;;;;;4992965;28;20027;-76
2021/08/03 09:17:07;;;;;;;7.72;1.58;;;18.40;99.90;;;;;;4991985;28;20068;-76
2021/08/03 09:19:39;;;;;;;3.42;1.50;;;18.50;99.90;;;;;;4986618;28;20081;-77
2021/08/03 09:22:12;;;;;;;1.88;1.70;;;18.70;99.90;;;;;;4988463;28;20034;-77
2021/08/03 09:24:38;;;;;;;2.47;2.00;;;18.90;99.90;;;;;;4992256;28;20022;-76
2021/08/03 09:27:03;;;;;;;11.43;2.00;;;18.90;99.90;;;;;;4992993;28;20292;-77
2021/08/03 09:29:46;;;;;;;6.20;2.33;;;19.10;99.90;;;;;;4992644;28;20030;-76
2021/08/03 09:32:12;;;;;;;3.78;2.10;;;19.10;99.90;;;;;;4992522;28;20386;-77
2021/08/03 09:34:38;;;;;;;4.43;2.58;;;19.20;99.90;;;;;;4992712;28;20058;-76
2021/08/03 09:37:04;;;;;;;4.45;2.97;;;19.20;99.90;;;;;;4991815;28;20568;-77
2021/08/03 09:39:38;;;;;;;8.77;4.20;;;19.10;99.90;;;;;;4992755;28;20093;-77
2021/08/03 09:42:08;;;;;;;3.78;1.90;;;19.10;99.90;;;;;;4992307;28;20470;-76
2021/08/03 09:44:35;;;;;;;8.20;2.50;;;19.30;99.90;;;;;;4991832;28;20034;-75
2021/08/03 09:47:00;;;;;;;5.00;3.03;;;19.50;99.90;;;;;;4992419;28;20039;-76
2021/08/03 09:49:36;;;;;;;7.60;3.70;;;19.60;99.90;;;;;;4992730;28;20029;-76
2021/08/03 09:52:12;;;;;;;4.57;3.42;;;19.60;99.90;;;;;;4992698;28;20028;-76
2021/08/03 09:54:38;;;;;;;4.43;3.38;;;19.80;99.90;;;;;;4997696;28;20029;-76
2021/08/03 09:57:18;;;;;;;5.22;3.05;;;19.90;99.90;;;;;;4993217;28;20050;-75
2021/08/03 09:59:44;;;;;;;6.50;3.13;;;20.10;99.90;;;;;;4991810;28;20019;-76
2021/08/03 10:02:16;;;;;;;10.95;3.55;;;20.20;99.90;;;;;;4992852;28;20028;-77
2021/08/03 10:04:45;;;;;;;5.53;2.80;;;20.10;99.90;;;;;;4994202;28;20053;-76
2021/08/03 10:07:14;;;;;;;9.10;3.70;;;20.50;99.90;;;;;;4995726;28;20096;-77
2021/08/03 10:09:40;;;;;;;6.30;2.60;;;20.20;99.90;;;;;;4998212;28;20105;-77
2021/08/03 10:12:06;;;;;;;3.95;3.30;;;20.50;99.90;;;;;;4994178;28;20061;-77
2021/08/03 10:14:31;;;;;;;4.40;3.58;;;20.40;99.90;;;;;;4996582;28;20018;-76
2021/08/03 10:16:57;;;;;;;6.68;4.40;;;20.40;99.90;;;;;;4996174;28;20054;-78
2021/08/03 10:19:29;;;;;;;4.53;3.63;;;20.20;99.90;;;;;;4990015;28;20022;-76
2021/08/03 10:22:03;;;;;;;7.32;5.57;;;20.10;99.90;;;;;;4988993;28;20116;-75
2021/08/03 10:24:34;;;;;;;5.00;2.90;;;19.90;99.90;;;;;;4996502;28;20026;-75
2021/08/03 10:27:10;;;;;;;4.72;2.75;;;20.00;99.90;;;;;;4995616;28;20042;-77
2021/08/03 10:29:52;;;;;;;6.35;3.00;;;20.20;99.90;;;;;;4982324;28;20478;-77
2021/08/03 10:32:45;;;;;;;12.48;2.60;;;20.40;99.90;;;;;;4995960;28;20041;-75
2021/08/03 10:35:16;;;;;;;10.55;5.35;;;20.60;99.90;;;;;;4995444;28;20034;-77
2021/08/03 10:38:12;;;;;;;7.97;6.10;;;20.80;99.90;;;;;;4996001;28;20030;-77
2021/08/03 10:40:44;;;;;;;6.03;5.43;;;20.90;99.90;;;;;;4994883;28;20039;-77
2021/08/03 10:43:20;;;;;;;9.02;5.53;;;21.10;99.90;;;;;;4996297;28;20021;-76
2021/08/03 10:45:47;;;;;;;7.03;5.68;;;21.20;99.90;;;;;;4996166;28;20038;-76
2021/08/03 10:48:42;;;;;;;6.93;5.20;;;21.30;99.90;;;;;;4995046;28;20027;-76
2021/08/03 10:51:16;;;;;;;5.43;4.88;;;21.40;99.90;;;;;;4995068;28;20022;-76
2021/08/03 10:54:07;;;;;;;8.65;6.50;;;21.40;99.90;;;;;;4996557;28;20113;-76
2021/08/03 10:56:52;;;;;;;10.13;6.13;;;21.40;99.90;;;;;;4992102;28;20097;-74
2021/08/03 10:59:37;;;;;;;6.07;5.60;;;21.20;99.90;;;;;;4987725;28;20038;-76
2021/08/03 11:02:22;;;;;;;8.45;6.40;;;21.10;99.90;;;;;;4994602;28;20426;-76
2021/08/03 11:04:51;;;;;;;11.18;6.80;;;21.10;99.90;;;;;;4995177;28;20471;-76
2021/08/03 11:07:30;;;;;;;10.98;7.25;;;21.10;99.90;;;;;;4995177;28;20030;-77
2021/08/03 11:09:59;;;;;;;11.48;8.45;;;21.20;99.90;;;;;;4996094;28;20378;-75
2021/08/03 11:12:42;;;;;;;9.30;7.50;;;21.20;99.90;;;;;;4995116;28;20047;-76
2021/08/03 11:15:23;;;;;;;13.15;7.45;;;21.50;99.90;;;;;;4994831;28;20085;-76
2021/08/03 11:18:01;;;;;;;7.93;7.13;;;21.80;99.90;;;;;;4995061;28;20026;-76
2021/08/03 11:20:41;;;;;;;8.18;7.07;;;21.70;99.90;;;;;;4995229;28;20030;-76
2021/08/03 11:23:11;;;;;;;10.25;7.07;;;21.80;99.80;;;;;;4995271;28;20025;-75
2021/08/03 11:25:39;;;;;;;9.10;7.28;;;21.80;98.40;;;;;;4995332;28;20026;-77
2021/08/03 11:28:15;;;;;;;8.18;5.35;;;21.70;98.70;;;;;;4994755;28;20057;-75
2021/08/03 11:30:45;;;;;;;7.43;5.85;;;21.70;98.50;;;;;;4994240;28;20053;-75
2021/08/03 11:33:15;;;;;;;6.60;5.80;;;21.80;98.60;;;;;;4995013;28;20168;-76
2021/08/03 11:35:41;;;;;;;6.53;5.93;;;21.80;98.50;;;;;;4994972;28;20046;-76
2021/08/03 11:38:09;;;;;;;8.48;6.53;;;21.80;99.00;;;;;;4994106;28;20058;-77
2021/08/03 11:40:36;;;;;;;6.95;6.03;;;21.90;99.20;;;;;;4994900;28;20022;-77
2021/08/03 11:43:03;;;;;;;5.90;5.40;;;21.90;99.30;;;;;;4994384;28;20030;-77
2021/08/03 11:45:29;;;;;;;9.18;7.10;;;22.10;99.90;;;;;;4993646;28;20116;-77
2021/08/03 11:48:01;;;;;;;8.23;7.38;;;22.20;99.00;;;;;;4994576;28;20054;-77
2021/08/03 11:50:34;;;;;;;12.63;7.38;;;22.50;98.20;;;;;;4994123;28;20076;-76
2021/08/03 11:53:12;;;;;;;10.05;6.60;;;22.20;97.60;;;;;;4993955;28;20122;-77
2021/08/03 11:55:49;;;;;;;9.20;6.88;;;22.10;97.60;;;;;;4994368;28;20030;-76
2021/08/03 11:58:23;;;;;;;7.32;5.88;;;21.90;98.10;;;;;;4993741;28;20026;-77
2021/08/03 12:00:57;;;;;;;8.20;6.93;;;21.70;98.50;;;;;;4994478;28;20427;-76
2021/08/03 12:03:31;;;;;;;7.95;6.95;;;21.40;98.70;;;;;;4994414;28;20117;-77
2021/08/03 12:06:03;;;;;;;6.88;6.22;;;21.20;99.20;;;;;;4992865;28;20030;-77
2021/08/03 12:08:35;;;;;;;7.70;6.95;;;21.00;99.90;;;;;;4994366;28;20100;-75
2021/08/03 12:11:02;;;;;;;10.63;6.85;;;20.90;99.90;;;;;;4993633;28;20482;-77
2021/08/03 12:13:34;;;;;;;8.00;7.13;;;20.90;99.90;;;;;;4993327;28;20026;-77
2021/08/03 12:16:02;;;;;;;8.60;7.72;;;20.90;99.90;;;;;;4992674;28;20101;-75
2021/08/03 12:18:36;;;;;;;8.52;7.72;;;20.40;99.90;;;;;;4993392;28;20033;-76
2021/08/03 12:21:02;;;;;;;8.80;7.35;;;20.30;99.90;;;;;;4980530;28;20088;-75
2021/08/03 12:23:35;;;;;;;7.28;6.38;;;20.30;99.90;;;;;;4994201;28;20112;-77
2021/08/03 12:26:04;;;;;;;9.00;6.47;;;20.50;99.90;;;;;;4992996;28;20026;-76
2021/08/03 12:28:43;;;;;;;8.15;6.50;;;20.60;99.90;;;;;;4993210;28;20045;-75
2021/08/03 12:31:27;;;;;;;7.65;6.63;;;20.70;99.90;;;;;;4993556;28;20026;-76
2021/08/03 12:33:54;;;;;;;7.22;6.50;;;20.60;99.90;;;;;;4992975;28;20030;-76
2021/08/03 12:36:20;;;;;;;10.43;6.80;;;20.50;99.90;;;;;;4993943;28;20026;-75
2021/08/03 12:39:07;;;;;;;10.07;8.82;;;20.50;99.90;;;;;;4993309;28;20457;-76
2021/08/03 12:41:33;;;;;;;9.35;7.05;;;20.40;99.90;;;;;;4965833;28;20022;-77
2021/08/03 12:44:00;;;;;;;8.13;7.40;;;20.30;99.90;;;;;;4993584;28;20080;-76
2021/08/03 12:46:37;;;;;;;10.15;9.10;;;20.30;99.90;;;;;;4993693;28;20038;-77
2021/08/03 12:49:04;;;;;;;8.00;7.20;;;20.40;99.90;;;;;;4993384;28;20026;-76
2021/08/03 12:51:31;;;;;;;9.25;8.32;;;20.50;99.90;;;;;;4993513;28;20027;-76
2021/08/03 12:54:16;;;;;;;9.40;8.30;;;20.60;99.90;;;;;;4992619;28;20027;-75
2021/08/03 12:56:56;;;;;;;8.27;7.43;;;21.00;99.90;;;;;;4993909;28;20030;-77